sensor_id;sensor_type;location;lat;lon;timestamp;P1;durP1;ratioP1;P2;durP2;ratioP2
78563;SDS011;67856;47.754;19.088;2023-06-22T00:01:22;8.68;;;7.78;;
78563;SDS011;67856;47.754;19.088;2023-06-22T00:04:25;8.82;;;7.93;;
78563;SDS011;67856;47.754;19.088;2023-06-22T00:07:28;9.77;;;8.00;;
78563;SDS011;67856;47.754;19.088;2023-06-22T00:10:30;8.90;;;8.00;;
78563;SDS011;67856;47.754;19.088;2023-06-22T00:13:33;9.30;;;7.80;;
78563;SDS011;67856;47.754;19.088;2023-06-22T00:16:35;9.60;;;8.00;;
78563;SDS011;67856;47.754;19.088;2023-06-22T00:19:38;8.68;;;7.78;;
78563;SDS011;67856;47.754;19.088;2023-06-22T00:22:42;9.47;;;8.27;;
78563;SDS011;67856;47.754;19.088;2023-06-22T00:25:45;8.77;;;7.43;;
78563;SDS011;67856;47.754;19.088;2023-06-22T00:28:47;8.70;;;7.80;;
78563;SDS011;67856;47.754;19.088;2023-06-22T00:31:49;9.25;;;7.85;;
78563;SDS011;67856;47.754;19.088;2023-06-22T00:34:52;8.15;;;7.35;;
78563;SDS011;67856;47.754;19.088;2023-06-22T00:37:55;9.23;;;8.00;;
78563;SDS011;67856;47.754;19.088;2023-06-22T00:41:05;8.77;;;7.67;;
78563;SDS011;67856;47.754;19.088;2023-06-22T00:44:08;8.32;;;7.43;;
78563;SDS011;67856;47.754;19.088;2023-06-22T00:47:11;8.30;;;7.40;;
78563;SDS011;67856;47.754;19.088;2023-06-22T00:50:18;8.98;;;7.93;;
78563;SDS011;67856;47.754;19.088;2023-06-22T00:53:23;8.63;;;7.23;;
78563;SDS011;67856;47.754;19.088;2023-06-22T00:56:25;9.80;;;7.33;;
78563;SDS011;67856;47.754;19.088;2023-06-22T00:59:28;9.00;;;7.57;;
78563;SDS011;67856;47.754;19.088;2023-06-22T01:02:30;8.77;;;7.35;;
78563;SDS011;67856;47.754;19.088;2023-06-22T01:05:33;8.18;;;6.65;;
78563;SDS011;67856;47.754;19.088;2023-06-22T01:09:00;8.33;;;6.37;;
78563;SDS011;67856;47.754;19.088;2023-06-22T01:12:06;8.07;;;6.10;;
78563;SDS011;67856;47.754;19.088;2023-06-22T01:15:27;7.78;;;6.80;;
78563;SDS011;67856;47.754;19.088;2023-06-22T01:18:33;7.20;;;6.50;;
78563;SDS011;67856;47.754;19.088;2023-06-22T01:21:38;7.88;;;6.88;;
78563;SDS011;67856;47.754;19.088;2023-06-22T01:24:43;9.07;;;7.03;;
78563;SDS011;67856;47.754;19.088;2023-06-22T01:28:01;8.23;;;6.70;;
78563;SDS011;67856;47.754;19.088;2023-06-22T01:31:08;7.63;;;6.72;;
78563;SDS011;67856;47.754;19.088;2023-06-22T01:34:13;7.50;;;6.43;;
78563;SDS011;67856;47.754;19.088;2023-06-22T01:37:16;8.10;;;7.05;;
78563;SDS011;67856;47.754;19.088;2023-06-22T01:40:18;7.60;;;6.43;;
78563;SDS011;67856;47.754;19.088;2023-06-22T01:43:21;6.90;;;5.90;;
78563;SDS011;67856;47.754;19.088;2023-06-22T01:46:27;8.55;;;6.63;;
78563;SDS011;67856;47.754;19.088;2023-06-22T01:49:30;7.43;;;6.35;;
78563;SDS011;67856;47.754;19.088;2023-06-22T01:52:32;7.78;;;6.30;;
78563;SDS011;67856;47.754;19.088;2023-06-22T01:55:36;7.93;;;6.27;;
78563;SDS011;67856;47.754;19.088;2023-06-22T01:58:41;6.90;;;5.77;;
78563;SDS011;67856;47.754;19.088;2023-06-22T02:02:02;7.07;;;5.85;;
78563;SDS011;67856;47.754;19.088;2023-06-22T02:05:08;7.93;;;6.00;;
78563;SDS011;67856;47.754;19.088;2023-06-22T02:08:19;8.13;;;5.90;;
78563;SDS011;67856;47.754;19.088;2023-06-22T02:11:23;6.57;;;5.87;;
78563;SDS011;67856;47.754;19.088;2023-06-22T02:14:27;9.13;;;6.30;;
78563;SDS011;67856;47.754;19.088;2023-06-22T02:17:29;7.25;;;6.00;;
78563;SDS011;67856;47.754;19.088;2023-06-22T02:20:39;8.55;;;6.45;;
78563;SDS011;67856;47.754;19.088;2023-06-22T02:23:42;6.68;;;5.82;;
78563;SDS011;67856;47.754;19.088;2023-06-22T02:26:44;7.50;;;6.53;;
78563;SDS011;67856;47.754;19.088;2023-06-22T02:29:47;7.97;;;6.67;;
78563;SDS011;67856;47.754;19.088;2023-06-22T02:32:50;7.28;;;6.30;;
78563;SDS011;67856;47.754;19.088;2023-06-22T02:36:01;7.93;;;6.65;;
78563;SDS011;67856;47.754;19.088;2023-06-22T02:39:07;7.30;;;6.50;;
78563;SDS011;67856;47.754;19.088;2023-06-22T02:42:11;7.30;;;6.38;;
78563;SDS011;67856;47.754;19.088;2023-06-22T02:45:13;7.17;;;6.27;;
78563;SDS011;67856;47.754;19.088;2023-06-22T02:48:17;8.13;;;6.35;;
78563;SDS011;67856;47.754;19.088;2023-06-22T02:51:20;7.13;;;6.43;;
78563;SDS011;67856;47.754;19.088;2023-06-22T02:54:22;7.60;;;6.20;;
78563;SDS011;67856;47.754;19.088;2023-06-22T02:57:27;7.30;;;6.53;;
78563;SDS011;67856;47.754;19.088;2023-06-22T03:00:30;7.60;;;6.30;;
78563;SDS011;67856;47.754;19.088;2023-06-22T03:03:34;7.55;;;6.13;;
78563;SDS011;67856;47.754;19.088;2023-06-22T03:06:37;7.38;;;6.57;;
78563;SDS011;67856;47.754;19.088;2023-06-22T03:09:43;8.13;;;6.40;;
78563;SDS011;67856;47.754;19.088;2023-06-22T03:12:45;7.80;;;6.57;;
78563;SDS011;67856;47.754;19.088;2023-06-22T03:15:48;8.13;;;6.50;;
78563;SDS011;67856;47.754;19.088;2023-06-22T03:18:50;7.28;;;6.20;;
78563;SDS011;67856;47.754;19.088;2023-06-22T03:21:53;7.00;;;6.30;;
78563;SDS011;67856;47.754;19.088;2023-06-22T03:24:55;6.95;;;6.20;;
78563;SDS011;67856;47.754;19.088;2023-06-22T03:27:58;7.43;;;6.43;;
78563;SDS011;67856;47.754;19.088;2023-06-22T03:31:01;7.00;;;6.13;;
78563;SDS011;67856;47.754;19.088;2023-06-22T03:34:05;7.03;;;6.05;;
78563;SDS011;67856;47.754;19.088;2023-06-22T03:37:07;7.47;;;6.38;;
78563;SDS011;67856;47.754;19.088;2023-06-22T03:40:10;6.85;;;5.80;;
78563;SDS011;67856;47.754;19.088;2023-06-22T03:43:14;7.30;;;6.30;;
78563;SDS011;67856;47.754;19.088;2023-06-22T03:46:16;7.23;;;5.90;;
78563;SDS011;67856;47.754;19.088;2023-06-22T03:49:19;6.82;;;6.13;;
78563;SDS011;67856;47.754;19.088;2023-06-22T03:52:22;7.35;;;6.03;;
78563;SDS011;67856;47.754;19.088;2023-06-22T03:55:24;7.35;;;6.05;;
78563;SDS011;67856;47.754;19.088;2023-06-22T03:58:27;6.70;;;5.90;;
78563;SDS011;67856;47.754;19.088;2023-06-22T04:01:35;7.17;;;5.93;;
78563;SDS011;67856;47.754;19.088;2023-06-22T04:04:38;7.25;;;6.40;;
78563;SDS011;67856;47.754;19.088;2023-06-22T04:07:41;6.47;;;5.78;;
78563;SDS011;67856;47.754;19.088;2023-06-22T04:10:44;6.57;;;5.82;;
78563;SDS011;67856;47.754;19.088;2023-06-22T04:13:47;7.77;;;5.10;;
78563;SDS011;67856;47.754;19.088;2023-06-22T04:16:51;6.90;;;4.77;;
78563;SDS011;67856;47.754;19.088;2023-06-22T04:19:54;5.95;;;5.00;;
78563;SDS011;67856;47.754;19.088;2023-06-22T04:22:56;6.85;;;5.63;;
78563;SDS011;67856;47.754;19.088;2023-06-22T04:25:58;6.20;;;5.57;;
78563;SDS011;67856;47.754;19.088;2023-06-22T04:29:01;6.57;;;5.80;;
78563;SDS011;67856;47.754;19.088;2023-06-22T04:32:07;6.30;;;5.63;;
78563;SDS011;67856;47.754;19.088;2023-06-22T04:35:10;6.93;;;5.80;;
78563;SDS011;67856;47.754;19.088;2023-06-22T04:38:13;6.15;;;5.40;;
78563;SDS011;67856;47.754;19.088;2023-06-22T04:41:15;7.25;;;6.00;;
78563;SDS011;67856;47.754;19.088;2023-06-22T04:44:26;6.10;;;5.50;;
78563;SDS011;67856;47.754;19.088;2023-06-22T04:47:29;6.70;;;6.00;;
78563;SDS011;67856;47.754;19.088;2023-06-22T04:50:31;6.60;;;5.85;;
78563;SDS011;67856;47.754;19.088;2023-06-22T04:53:34;7.05;;;6.07;;
78563;SDS011;67856;47.754;19.088;2023-06-22T04:56:36;6.75;;;5.50;;
78563;SDS011;67856;47.754;19.088;2023-06-22T04:59:39;6.73;;;6.00;;
78563;SDS011;67856;47.754;19.088;2023-06-22T05:02:44;5.83;;;5.23;;
78563;SDS011;67856;47.754;19.088;2023-06-22T05:05:47;6.88;;;5.93;;
78563;SDS011;67856;47.754;19.088;2023-06-22T05:08:53;6.60;;;5.85;;
78563;SDS011;67856;47.754;19.088;2023-06-22T05:11:59;6.28;;;5.57;;
78563;SDS011;67856;47.754;19.088;2023-06-22T05:15:05;6.30;;;5.70;;
78563;SDS011;67856;47.754;19.088;2023-06-22T05:18:08;6.43;;;5.50;;
78563;SDS011;67856;47.754;19.088;2023-06-22T05:21:11;6.32;;;5.68;;
78563;SDS011;67856;47.754;19.088;2023-06-22T05:24:13;6.50;;;5.47;;
78563;SDS011;67856;47.754;19.088;2023-06-22T05:27:16;6.78;;;5.90;;
78563;SDS011;67856;47.754;19.088;2023-06-22T05:30:18;6.50;;;5.80;;
78563;SDS011;67856;47.754;19.088;2023-06-22T05:33:23;6.30;;;5.70;;
78563;SDS011;67856;47.754;19.088;2023-06-22T05:36:25;6.30;;;5.70;;
78563;SDS011;67856;47.754;19.088;2023-06-22T05:39:28;7.38;;;5.57;;
78563;SDS011;67856;47.754;19.088;2023-06-22T05:42:30;6.65;;;5.70;;
78563;SDS011;67856;47.754;19.088;2023-06-22T05:45:33;6.30;;;5.60;;
78563;SDS011;67856;47.754;19.088;2023-06-22T05:48:35;6.43;;;5.83;;
78563;SDS011;67856;47.754;19.088;2023-06-22T05:51:37;6.50;;;5.68;;
78563;SDS011;67856;47.754;19.088;2023-06-22T05:54:40;6.28;;;5.55;;
78563;SDS011;67856;47.754;19.088;2023-06-22T05:57:44;6.60;;;5.55;;
78563;SDS011;67856;47.754;19.088;2023-06-22T06:00:46;7.27;;;5.80;;
78563;SDS011;67856;47.754;19.088;2023-06-22T06:03:49;7.00;;;6.30;;
78563;SDS011;67856;47.754;19.088;2023-06-22T06:06:52;7.38;;;5.38;;
78563;SDS011;67856;47.754;19.088;2023-06-22T06:09:54;7.00;;;5.03;;
78563;SDS011;67856;47.754;19.088;2023-06-22T06:12:56;5.55;;;5.00;;
78563;SDS011;67856;47.754;19.088;2023-06-22T06:15:59;8.93;;;5.23;;
78563;SDS011;67856;47.754;19.088;2023-06-22T06:19:01;6.30;;;5.37;;
78563;SDS011;67856;47.754;19.088;2023-06-22T06:22:04;6.47;;;5.30;;
78563;SDS011;67856;47.754;19.088;2023-06-22T06:25:06;7.32;;;5.32;;
78563;SDS011;67856;47.754;19.088;2023-06-22T06:28:09;7.32;;;5.38;;
78563;SDS011;67856;47.754;19.088;2023-06-22T06:31:11;7.03;;;4.87;;
78563;SDS011;67856;47.754;19.088;2023-06-22T06:34:19;5.77;;;4.97;;
78563;SDS011;67856;47.754;19.088;2023-06-22T06:37:21;7.60;;;4.90;;
78563;SDS011;67856;47.754;19.088;2023-06-22T06:40:24;7.93;;;5.40;;
78563;SDS011;67856;47.754;19.088;2023-06-22T06:43:27;6.90;;;5.32;;
78563;SDS011;67856;47.754;19.088;2023-06-22T06:46:29;6.70;;;4.80;;
78563;SDS011;67856;47.754;19.088;2023-06-22T06:49:33;5.70;;;5.10;;
78563;SDS011;67856;47.754;19.088;2023-06-22T06:52:35;7.78;;;5.00;;
78563;SDS011;67856;47.754;19.088;2023-06-22T06:55:40;7.13;;;4.70;;
78563;SDS011;67856;47.754;19.088;2023-06-22T06:58:42;7.53;;;5.00;;
78563;SDS011;67856;47.754;19.088;2023-06-22T07:01:47;7.43;;;4.90;;
78563;SDS011;67856;47.754;19.088;2023-06-22T07:04:50;5.53;;;4.70;;
78563;SDS011;67856;47.754;19.088;2023-06-22T07:07:53;7.55;;;4.97;;
78563;SDS011;67856;47.754;19.088;2023-06-22T07:10:55;6.53;;;4.45;;
78563;SDS011;67856;47.754;19.088;2023-06-22T07:13:58;6.55;;;4.90;;
78563;SDS011;67856;47.754;19.088;2023-06-22T07:17:02;6.45;;;4.90;;
78563;SDS011;67856;47.754;19.088;2023-06-22T07:20:05;7.00;;;4.53;;
78563;SDS011;67856;47.754;19.088;2023-06-22T07:23:12;8.52;;;4.93;;
78563;SDS011;67856;47.754;19.088;2023-06-22T07:26:14;7.97;;;4.70;;
78563;SDS011;67856;47.754;19.088;2023-06-22T07:29:18;8.05;;;4.80;;
78563;SDS011;67856;47.754;19.088;2023-06-22T07:32:22;6.67;;;4.80;;
78563;SDS011;67856;47.754;19.088;2023-06-22T07:35:24;7.97;;;4.70;;
78563;SDS011;67856;47.754;19.088;2023-06-22T07:38:27;5.88;;;5.18;;
78563;SDS011;67856;47.754;19.088;2023-06-22T07:41:29;7.28;;;4.80;;
78563;SDS011;67856;47.754;19.088;2023-06-22T07:44:32;5.95;;;4.60;;
78563;SDS011;67856;47.754;19.088;2023-06-22T07:47:34;6.93;;;4.60;;
78563;SDS011;67856;47.754;19.088;2023-06-22T07:50:37;5.60;;;4.73;;
78563;SDS011;67856;47.754;19.088;2023-06-22T07:53:40;7.50;;;4.38;;
78563;SDS011;67856;47.754;19.088;2023-06-22T07:56:44;6.22;;;4.60;;
78563;SDS011;67856;47.754;19.088;2023-06-22T07:59:46;6.72;;;4.40;;
78563;SDS011;67856;47.754;19.088;2023-06-22T08:02:48;5.97;;;4.73;;
78563;SDS011;67856;47.754;19.088;2023-06-22T08:05:52;7.10;;;4.10;;
78563;SDS011;67856;47.754;19.088;2023-06-22T08:08:55;4.68;;;4.10;;
78563;SDS011;67856;47.754;19.088;2023-06-22T08:12:01;6.85;;;4.38;;
78563;SDS011;67856;47.754;19.088;2023-06-22T08:15:05;5.07;;;4.57;;
78563;SDS011;67856;47.754;19.088;2023-06-22T08:18:08;8.27;;;4.33;;
78563;SDS011;67856;47.754;19.088;2023-06-22T08:21:11;6.83;;;4.50;;
78563;SDS011;67856;47.754;19.088;2023-06-22T08:24:14;5.57;;;4.72;;
78563;SDS011;67856;47.754;19.088;2023-06-22T08:27:16;5.10;;;4.60;;
78563;SDS011;67856;47.754;19.088;2023-06-22T08:30:20;9.07;;;4.45;;
78563;SDS011;67856;47.754;19.088;2023-06-22T08:33:23;5.57;;;4.40;;
78563;SDS011;67856;47.754;19.088;2023-06-22T08:36:30;5.70;;;4.27;;
78563;SDS011;67856;47.754;19.088;2023-06-22T08:39:37;5.97;;;4.32;;
78563;SDS011;67856;47.754;19.088;2023-06-22T08:42:40;5.82;;;4.18;;
78563;SDS011;67856;47.754;19.088;2023-06-22T08:45:43;5.30;;;4.38;;
78563;SDS011;67856;47.754;19.088;2023-06-22T08:48:46;5.73;;;4.40;;
78563;SDS011;67856;47.754;19.088;2023-06-22T08:51:49;7.00;;;4.30;;
78563;SDS011;67856;47.754;19.088;2023-06-22T08:54:58;5.05;;;4.50;;
78563;SDS011;67856;47.754;19.088;2023-06-22T08:58:00;5.95;;;4.43;;
78563;SDS011;67856;47.754;19.088;2023-06-22T09:01:03;7.00;;;4.30;;
78563;SDS011;67856;47.754;19.088;2023-06-22T09:04:06;5.50;;;4.45;;
78563;SDS011;67856;47.754;19.088;2023-06-22T09:07:12;5.13;;;4.50;;
78563;SDS011;67856;47.754;19.088;2023-06-22T09:10:14;5.20;;;4.35;;
78563;SDS011;67856;47.754;19.088;2023-06-22T09:13:17;5.57;;;4.72;;
78563;SDS011;67856;47.754;19.088;2023-06-22T09:16:19;5.28;;;4.20;;
78563;SDS011;67856;47.754;19.088;2023-06-22T09:19:21;7.22;;;4.57;;
78563;SDS011;67856;47.754;19.088;2023-06-22T09:22:24;5.93;;;4.60;;
78563;SDS011;67856;47.754;19.088;2023-06-22T09:25:31;5.75;;;4.72;;
78563;SDS011;67856;47.754;19.088;2023-06-22T09:28:34;4.55;;;4.03;;
78563;SDS011;67856;47.754;19.088;2023-06-22T09:31:36;4.75;;;4.20;;
78563;SDS011;67856;47.754;19.088;2023-06-22T09:34:39;5.75;;;4.40;;
78563;SDS011;67856;47.754;19.088;2023-06-22T09:37:41;5.83;;;4.10;;
78563;SDS011;67856;47.754;19.088;2023-06-22T09:40:44;5.53;;;4.20;;
78563;SDS011;67856;47.754;19.088;2023-06-22T09:43:46;4.80;;;4.30;;
78563;SDS011;67856;47.754;19.088;2023-06-22T09:46:50;8.15;;;4.65;;
78563;SDS011;67856;47.754;19.088;2023-06-22T09:49:52;5.77;;;4.73;;
78563;SDS011;67856;47.754;19.088;2023-06-22T09:52:57;5.10;;;4.30;;
78563;SDS011;67856;47.754;19.088;2023-06-22T09:56:00;5.07;;;4.45;;
78563;SDS011;67856;47.754;19.088;2023-06-22T09:59:03;5.75;;;4.57;;
78563;SDS011;67856;47.754;19.088;2023-06-22T10:02:19;4.80;;;4.00;;
78563;SDS011;67856;47.754;19.088;2023-06-22T10:05:22;6.03;;;4.40;;
78563;SDS011;67856;47.754;19.088;2023-06-22T10:08:25;5.13;;;4.20;;
78563;SDS011;67856;47.754;19.088;2023-06-22T10:11:27;4.80;;;4.13;;
78563;SDS011;67856;47.754;19.088;2023-06-22T10:14:32;4.93;;;4.35;;
78563;SDS011;67856;47.754;19.088;2023-06-22T10:17:35;4.82;;;4.10;;
78563;SDS011;67856;47.754;19.088;2023-06-22T10:20:37;4.87;;;4.20;;
78563;SDS011;67856;47.754;19.088;2023-06-22T10:23:40;5.13;;;4.30;;
78563;SDS011;67856;47.754;19.088;2023-06-22T10:26:42;5.47;;;4.45;;
78563;SDS011;67856;47.754;19.088;2023-06-22T10:29:45;5.30;;;4.20;;
78563;SDS011;67856;47.754;19.088;2023-06-22T10:32:47;4.60;;;3.97;;
78563;SDS011;67856;47.754;19.088;2023-06-22T10:35:49;6.13;;;4.40;;
78563;SDS011;67856;47.754;19.088;2023-06-22T10:38:52;4.53;;;3.97;;
78563;SDS011;67856;47.754;19.088;2023-06-22T10:41:55;5.75;;;4.30;;
78563;SDS011;67856;47.754;19.088;2023-06-22T10:44:58;4.38;;;3.97;;
78563;SDS011;67856;47.754;19.088;2023-06-22T10:48:00;5.50;;;4.40;;
78563;SDS011;67856;47.754;19.088;2023-06-22T10:51:03;5.83;;;4.47;;
78563;SDS011;67856;47.754;19.088;2023-06-22T10:54:05;5.60;;;4.23;;
78563;SDS011;67856;47.754;19.088;2023-06-22T10:57:08;5.57;;;4.28;;
78563;SDS011;67856;47.754;19.088;2023-06-22T11:00:16;5.10;;;4.30;;
78563;SDS011;67856;47.754;19.088;2023-06-22T11:03:18;5.15;;;4.45;;
78563;SDS011;67856;47.754;19.088;2023-06-22T11:06:21;5.33;;;3.90;;
78563;SDS011;67856;47.754;19.088;2023-06-22T11:09:23;5.13;;;4.30;;
78563;SDS011;67856;47.754;19.088;2023-06-22T11:12:30;5.82;;;4.25;;
78563;SDS011;67856;47.754;19.088;2023-06-22T11:15:32;5.85;;;4.22;;
78563;SDS011;67856;47.754;19.088;2023-06-22T11:18:36;4.60;;;4.10;;
78563;SDS011;67856;47.754;19.088;2023-06-22T11:21:38;4.43;;;4.03;;
78563;SDS011;67856;47.754;19.088;2023-06-22T11:24:41;5.10;;;4.30;;
78563;SDS011;67856;47.754;19.088;2023-06-22T11:27:43;4.68;;;4.07;;
78563;SDS011;67856;47.754;19.088;2023-06-22T11:30:46;5.07;;;3.90;;
78563;SDS011;67856;47.754;19.088;2023-06-22T11:33:48;6.50;;;4.20;;
78563;SDS011;67856;47.754;19.088;2023-06-22T11:36:51;5.17;;;3.77;;
78563;SDS011;67856;47.754;19.088;2023-06-22T11:39:53;4.60;;;4.00;;
78563;SDS011;67856;47.754;19.088;2023-06-22T11:43:08;5.13;;;3.95;;
78563;SDS011;67856;47.754;19.088;2023-06-22T11:46:10;5.15;;;3.90;;
78563;SDS011;67856;47.754;19.088;2023-06-22T11:49:13;4.82;;;4.15;;
78563;SDS011;67856;47.754;19.088;2023-06-22T11:52:15;6.10;;;4.00;;
78563;SDS011;67856;47.754;19.088;2023-06-22T11:55:19;4.33;;;3.93;;
78563;SDS011;67856;47.754;19.088;2023-06-22T11:58:22;4.80;;;4.00;;
78563;SDS011;67856;47.754;19.088;2023-06-22T12:01:24;5.88;;;4.20;;
78563;SDS011;67856;47.754;19.088;2023-06-22T12:04:27;4.35;;;3.95;;
78563;SDS011;67856;47.754;19.088;2023-06-22T12:07:29;6.17;;;4.37;;
78563;SDS011;67856;47.754;19.088;2023-06-22T12:10:32;5.83;;;4.03;;
78563;SDS011;67856;47.754;19.088;2023-06-22T12:13:34;6.13;;;4.20;;
78563;SDS011;67856;47.754;19.088;2023-06-22T12:16:37;4.63;;;4.13;;
78563;SDS011;67856;47.754;19.088;2023-06-22T12:19:40;5.88;;;4.40;;
78563;SDS011;67856;47.754;19.088;2023-06-22T12:22:43;5.17;;;4.10;;
78563;SDS011;67856;47.754;19.088;2023-06-22T12:25:45;4.83;;;3.80;;
78563;SDS011;67856;47.754;19.088;2023-06-22T12:28:48;4.57;;;3.90;;
78563;SDS011;67856;47.754;19.088;2023-06-22T12:31:50;4.85;;;3.88;;
78563;SDS011;67856;47.754;19.088;2023-06-22T12:34:52;4.10;;;3.70;;
78563;SDS011;67856;47.754;19.088;2023-06-22T12:37:55;5.70;;;3.77;;
78563;SDS011;67856;47.754;19.088;2023-06-22T12:40:57;4.93;;;3.87;;
78563;SDS011;67856;47.754;19.088;2023-06-22T12:44:00;5.03;;;4.10;;
78563;SDS011;67856;47.754;19.088;2023-06-22T12:47:02;4.40;;;3.90;;
78563;SDS011;67856;47.754;19.088;2023-06-22T12:50:05;4.97;;;4.13;;
78563;SDS011;67856;47.754;19.088;2023-06-22T12:53:08;4.93;;;3.88;;
78563;SDS011;67856;47.754;19.088;2023-06-22T12:56:10;5.27;;;4.13;;
78563;SDS011;67856;47.754;19.088;2023-06-22T12:59:13;4.45;;;3.97;;
78563;SDS011;67856;47.754;19.088;2023-06-22T13:02:15;4.65;;;4.15;;
78563;SDS011;67856;47.754;19.088;2023-06-22T13:05:18;4.50;;;3.90;;
78563;SDS011;67856;47.754;19.088;2023-06-22T13:08:21;4.23;;;3.83;;
78563;SDS011;67856;47.754;19.088;2023-06-22T13:11:29;4.83;;;3.90;;
78563;SDS011;67856;47.754;19.088;2023-06-22T13:14:31;4.68;;;4.25;;
78563;SDS011;67856;47.754;19.088;2023-06-22T13:17:34;4.30;;;3.60;;
78563;SDS011;67856;47.754;19.088;2023-06-22T13:20:36;4.47;;;4.07;;
78563;SDS011;67856;47.754;19.088;2023-06-22T13:23:39;4.70;;;3.85;;
78563;SDS011;67856;47.754;19.088;2023-06-22T13:26:41;4.27;;;3.80;;
78563;SDS011;67856;47.754;19.088;2023-06-22T13:29:44;5.32;;;4.10;;
78563;SDS011;67856;47.754;19.088;2023-06-22T13:32:46;5.10;;;4.07;;
78563;SDS011;67856;47.754;19.088;2023-06-22T13:35:48;4.60;;;3.70;;
78563;SDS011;67856;47.754;19.088;2023-06-22T13:38:51;5.53;;;4.00;;
78563;SDS011;67856;47.754;19.088;2023-06-22T13:41:54;4.17;;;3.70;;
78563;SDS011;67856;47.754;19.088;2023-06-22T13:44:56;4.55;;;4.05;;
78563;SDS011;67856;47.754;19.088;2023-06-22T13:47:58;5.03;;;4.13;;
78563;SDS011;67856;47.754;19.088;2023-06-22T13:51:01;4.82;;;3.70;;
78563;SDS011;67856;47.754;19.088;2023-06-22T13:54:03;4.40;;;3.90;;
78563;SDS011;67856;47.754;19.088;2023-06-22T13:57:10;4.37;;;3.83;;
78563;SDS011;67856;47.754;19.088;2023-06-22T14:00:13;4.72;;;3.70;;
78563;SDS011;67856;47.754;19.088;2023-06-22T14:03:17;4.57;;;3.90;;
78563;SDS011;67856;47.754;19.088;2023-06-22T14:06:19;4.40;;;3.80;;
78563;SDS011;67856;47.754;19.088;2023-06-22T14:09:22;5.93;;;4.13;;
78563;SDS011;67856;47.754;19.088;2023-06-22T14:12:24;5.83;;;3.73;;
78563;SDS011;67856;47.754;19.088;2023-06-22T14:15:27;5.47;;;3.63;;
78563;SDS011;67856;47.754;19.088;2023-06-22T14:18:29;4.97;;;3.78;;
78563;SDS011;67856;47.754;19.088;2023-06-22T14:21:32;4.60;;;4.10;;
78563;SDS011;67856;47.754;19.088;2023-06-22T14:24:34;3.97;;;3.58;;
78563;SDS011;67856;47.754;19.088;2023-06-22T14:27:36;4.73;;;4.03;;
78563;SDS011;67856;47.754;19.088;2023-06-22T14:30:39;3.90;;;3.50;;
78563;SDS011;67856;47.754;19.088;2023-06-22T14:33:44;3.83;;;3.53;;
78563;SDS011;67856;47.754;19.088;2023-06-22T14:36:50;4.10;;;3.47;;
78563;SDS011;67856;47.754;19.088;2023-06-22T14:39:52;4.23;;;3.67;;
78563;SDS011;67856;47.754;19.088;2023-06-22T14:42:54;4.10;;;3.70;;
78563;SDS011;67856;47.754;19.088;2023-06-22T14:45:58;4.45;;;3.90;;
78563;SDS011;67856;47.754;19.088;2023-06-22T14:49:01;4.55;;;3.55;;
78563;SDS011;67856;47.754;19.088;2023-06-22T14:52:03;5.85;;;3.40;;
78563;SDS011;67856;47.754;19.088;2023-06-22T14:55:06;4.93;;;3.88;;
78563;SDS011;67856;47.754;19.088;2023-06-22T14:58:09;4.40;;;3.57;;
78563;SDS011;67856;47.754;19.088;2023-06-22T15:01:12;4.00;;;3.50;;
78563;SDS011;67856;47.754;19.088;2023-06-22T15:04:15;4.35;;;3.88;;
78563;SDS011;67856;47.754;19.088;2023-06-22T15:07:17;4.07;;;3.67;;
78563;SDS011;67856;47.754;19.088;2023-06-22T15:10:20;4.00;;;3.60;;
78563;SDS011;67856;47.754;19.088;2023-06-22T15:13:22;4.80;;;3.73;;
78563;SDS011;67856;47.754;19.088;2023-06-22T15:16:25;4.90;;;3.70;;
78563;SDS011;67856;47.754;19.088;2023-06-22T15:19:27;4.30;;;3.40;;
78563;SDS011;67856;47.754;19.088;2023-06-22T15:22:30;4.30;;;3.70;;
78563;SDS011;67856;47.754;19.088;2023-06-22T15:25:33;4.20;;;3.80;;
78563;SDS011;67856;47.754;19.088;2023-06-22T15:28:35;3.90;;;3.50;;
78563;SDS011;67856;47.754;19.088;2023-06-22T15:31:40;4.07;;;3.67;;
78563;SDS011;67856;47.754;19.088;2023-06-22T15:34:42;4.32;;;3.53;;
78563;SDS011;67856;47.754;19.088;2023-06-22T15:37:45;4.10;;;3.63;;
78563;SDS011;67856;47.754;19.088;2023-06-22T15:40:47;4.10;;;3.60;;
78563;SDS011;67856;47.754;19.088;2023-06-22T15:43:50;4.00;;;3.60;;
78563;SDS011;67856;47.754;19.088;2023-06-22T15:46:52;3.95;;;3.55;;
78563;SDS011;67856;47.754;19.088;2023-06-22T15:49:55;4.55;;;3.80;;
78563;SDS011;67856;47.754;19.088;2023-06-22T15:52:57;4.57;;;3.80;;
78563;SDS011;67856;47.754;19.088;2023-06-22T15:56:00;4.18;;;3.78;;
78563;SDS011;67856;47.754;19.088;2023-06-22T15:59:02;4.07;;;3.63;;
78563;SDS011;67856;47.754;19.088;2023-06-22T16:02:05;4.07;;;3.67;;
78563;SDS011;67856;47.754;19.088;2023-06-22T16:05:08;4.00;;;3.50;;
78563;SDS011;67856;47.754;19.088;2023-06-22T16:08:11;4.80;;;3.40;;
78563;SDS011;67856;47.754;19.088;2023-06-22T16:11:13;4.32;;;3.60;;
78563;SDS011;67856;47.754;19.088;2023-06-22T16:14:16;3.40;;;3.10;;
78563;SDS011;67856;47.754;19.088;2023-06-22T16:17:18;4.07;;;3.58;;
78563;SDS011;67856;47.754;19.088;2023-06-22T16:20:21;4.30;;;3.28;;
78563;SDS011;67856;47.754;19.088;2023-06-22T16:23:23;3.80;;;3.30;;
78563;SDS011;67856;47.754;19.088;2023-06-22T16:26:26;3.70;;;3.30;;
78563;SDS011;67856;47.754;19.088;2023-06-22T16:29:28;4.80;;;3.80;;
78563;SDS011;67856;47.754;19.088;2023-06-22T16:32:31;4.25;;;3.72;;
78563;SDS011;67856;47.754;19.088;2023-06-22T16:35:33;3.90;;;3.50;;
78563;SDS011;67856;47.754;19.088;2023-06-22T16:38:38;3.90;;;3.45;;
78563;SDS011;67856;47.754;19.088;2023-06-22T16:41:41;4.22;;;3.60;;
78563;SDS011;67856;47.754;19.088;2023-06-22T16:44:44;3.93;;;3.53;;
78563;SDS011;67856;47.754;19.088;2023-06-22T16:47:47;3.83;;;3.38;;
78563;SDS011;67856;47.754;19.088;2023-06-22T16:50:51;3.97;;;3.58;;
78563;SDS011;67856;47.754;19.088;2023-06-22T16:53:54;4.13;;;3.30;;
78563;SDS011;67856;47.754;19.088;2023-06-22T16:57:00;3.92;;;3.47;;
78563;SDS011;67856;47.754;19.088;2023-06-22T17:00:03;4.10;;;3.20;;
78563;SDS011;67856;47.754;19.088;2023-06-22T17:03:36;4.07;;;3.67;;
78563;SDS011;67856;47.754;19.088;2023-06-22T17:06:37;4.47;;;3.33;;
78563;SDS011;67856;47.754;19.088;2023-06-22T17:09:45;4.30;;;3.42;;
78563;SDS011;67856;47.754;19.088;2023-06-22T17:12:51;3.88;;;3.47;;
78563;SDS011;67856;47.754;19.088;2023-06-22T17:15:56;3.97;;;3.57;;
78563;SDS011;67856;47.754;19.088;2023-06-22T17:19:02;3.70;;;3.40;;
78563;SDS011;67856;47.754;19.088;2023-06-22T17:22:08;3.67;;;3.28;;
78563;SDS011;67856;47.754;19.088;2023-06-22T17:25:10;4.07;;;3.22;;
78563;SDS011;67856;47.754;19.088;2023-06-22T17:28:15;3.60;;;3.30;;
78563;SDS011;67856;47.754;19.088;2023-06-22T17:31:17;4.17;;;3.40;;
78563;SDS011;67856;47.754;19.088;2023-06-22T17:34:20;4.07;;;3.42;;
78563;SDS011;67856;47.754;19.088;2023-06-22T17:37:23;3.88;;;3.28;;
78563;SDS011;67856;47.754;19.088;2023-06-22T17:40:26;3.78;;;3.20;;
78563;SDS011;67856;47.754;19.088;2023-06-22T17:43:28;4.20;;;3.40;;
78563;SDS011;67856;47.754;19.088;2023-06-22T17:46:37;3.97;;;3.57;;
78563;SDS011;67856;47.754;19.088;2023-06-22T17:49:40;4.15;;;3.50;;
78563;SDS011;67856;47.754;19.088;2023-06-22T17:52:49;4.45;;;3.40;;
78563;SDS011;67856;47.754;19.088;2023-06-22T17:55:53;3.70;;;3.40;;
78563;SDS011;67856;47.754;19.088;2023-06-22T17:58:56;4.28;;;3.38;;
78563;SDS011;67856;47.754;19.088;2023-06-22T18:02:05;3.73;;;3.37;;
78563;SDS011;67856;47.754;19.088;2023-06-22T18:05:09;3.53;;;3.22;;
78563;SDS011;67856;47.754;19.088;2023-06-22T18:08:11;3.78;;;3.25;;